createdAt,value
2018-05-25T13:13:30.971Z,43.92
2018-05-25T13:15:58.436Z,42.56
2018-05-25T13:18:25.921Z,42.95
2018-05-25T13:20:53.387Z,43.31
2018-05-25T13:23:20.869Z,44.52
2018-05-25T13:25:48.354Z,43.65
2018-05-25T13:28:15.842Z,43.78
2018-05-25T13:30:43.314Z,44.08
2018-05-25T13:33:10.881Z,43.66
2018-05-25T13:35:38.387Z,44.55
2018-05-25T13:38:05.921Z,44.48
2018-05-25T13:40:33.425Z,44.84
2018-05-25T13:43:00.923Z,45.30
2018-05-25T13:45:28.410Z,44.98
2018-05-25T13:47:55.873Z,44.79
2018-05-25T13:50:23.366Z,44.68
2018-05-25T13:52:51.287Z,43.96
2018-05-25T13:55:18.771Z,44.13
2018-05-25T13:57:46.236Z,44.97
2018-05-25T14:00:13.730Z,43.81
2018-05-25T14:02:41.318Z,44.32
2018-05-25T14:05:08.841Z,43.73
2018-05-25T14:07:36.308Z,44.41
2018-05-25T14:10:03.793Z,44.91
2018-05-25T14:12:31.322Z,44.56
2018-05-25T14:14:58.810Z,45.60
2018-05-25T14:17:26.344Z,46.10
2018-05-25T14:19:53.850Z,45.68
2018-05-25T14:22:21.305Z,45.12
2018-05-25T14:24:48.786Z,45.17
2018-05-25T14:27:20.506Z,45.21
2018-05-25T14:29:48.156Z,45.71
2018-05-25T14:32:15.631Z,45.52
2018-05-25T14:34:43.128Z,45.62
2018-05-25T14:37:10.639Z,46.08
2018-05-25T14:39:38.143Z,46.03
2018-05-25T14:42:05.647Z,45.94
2018-05-25T14:44:33.202Z,46.49
2018-05-25T14:47:00.962Z,46.91
2018-05-25T14:49:28.466Z,46.86
2018-05-25T14:51:55.994Z,46.06
2018-05-25T14:54:23.557Z,45.44
2018-05-25T14:56:51.023Z,43.23
2018-05-25T14:59:18.481Z,41.94
2018-05-25T15:01:45.976Z,42.74
2018-05-25T15:04:13.453Z,45.44
2018-05-25T15:06:41.040Z,43.76
2018-05-25T15:09:08.511Z,42.66
2018-05-25T15:11:36.058Z,44.33
2018-05-25T15:14:03.546Z,44.87
2018-05-25T15:16:31.030Z,43.55
2018-05-25T15:18:58.626Z,43.40
2018-05-25T15:21:26.106Z,44.21
2018-05-25T15:23:53.563Z,43.92
2018-05-25T15:26:21.054Z,44.79
2018-05-25T15:28:48.570Z,43.78
2018-05-25T15:31:16.054Z,41.63
2018-05-25T15:33:43.597Z,41.20
2018-05-25T15:36:11.088Z,42.56
2018-05-25T15:38:38.550Z,43.97
2018-05-25T15:41:06.042Z,44.82
2018-05-25T15:43:33.509Z,45.43
2018-05-25T15:46:01.933Z,44.86
2018-05-25T15:48:29.390Z,44.26
2018-05-25T15:50:56.963Z,44.30
2018-05-25T15:53:24.480Z,42.16
2018-05-25T15:55:51.975Z,41.13
2018-05-25T15:58:19.498Z,42.72
2018-05-25T16:00:46.986Z,42.75
2018-05-25T16:03:14.514Z,41.66
2018-05-25T16:05:42.015Z,42.20
2018-05-25T16:08:09.570Z,44.04
2018-05-25T16:10:37.102Z,43.99
2018-05-25T16:13:04.566Z,44.22
2018-05-25T16:15:32.043Z,44.41
2018-05-25T16:17:59.522Z,43.08
2018-05-25T16:20:27.170Z,43.69
2018-05-25T16:22:54.649Z,44.95
2018-05-25T16:25:22.172Z,42.91
2018-05-25T16:27:49.654Z,43.13
2018-05-25T16:30:17.131Z,44.07
2018-05-25T16:32:44.609Z,43.16
2018-05-25T16:35:12.094Z,43.38
2018-05-25T16:37:39.637Z,42.46
2018-05-25T16:40:07.147Z,41.33
2018-05-25T16:42:34.654Z,41.20
2018-05-25T16:45:02.119Z,40.44
2018-05-25T16:47:29.658Z,41.41
2018-05-25T16:49:57.134Z,41.37
2018-05-25T16:52:24.690Z,40.81
2018-05-25T16:54:52.255Z,40.64
2018-05-25T16:57:19.734Z,40.38
2018-05-25T16:59:47.200Z,40.09
2018-05-25T17:02:14.722Z,40.03
2018-05-25T17:04:42.190Z,40.62
2018-05-25T17:07:10.133Z,40.84
2018-05-25T17:09:37.675Z,40.79
2018-05-25T17:12:05.148Z,41.44
2018-05-25T17:14:32.629Z,39.75
2018-05-25T17:17:00.099Z,40.44
2018-05-25T17:19:27.634Z,41.41
2018-05-25T17:21:55.089Z,39.74
2018-05-25T17:24:22.643Z,40.53
2018-05-25T17:26:50.075Z,40.35
2018-05-25T17:29:17.561Z,39.76
2018-05-25T17:31:45.026Z,37.63
2018-05-25T17:34:12.510Z,37.08
2018-05-25T17:36:40.053Z,36.33
2018-05-25T17:39:07.611Z,36.53
2018-05-25T17:41:35.073Z,36.37
2018-05-25T17:44:02.563Z,36.97
2018-05-25T17:46:30.023Z,36.66
2018-05-25T17:48:57.510Z,34.13
2018-05-25T17:51:24.972Z,32.06
2018-05-25T17:53:52.466Z,30.73
2018-05-25T17:56:19.955Z,29.65
2018-05-25T17:58:47.458Z,29.08
2018-05-25T18:01:14.914Z,28.58
2018-05-25T18:03:42.423Z,28.03
2018-05-25T18:06:09.895Z,27.72
2018-05-25T18:08:37.414Z,27.67
2018-05-25T18:11:04.874Z,27.63
2018-05-25T18:13:32.407Z,27.49
2018-05-25T18:15:59.869Z,27.25
2018-05-25T18:18:27.391Z,27.11
2018-05-25T18:20:54.878Z,27.01
2018-05-25T18:23:22.334Z,26.85
2018-05-25T18:25:49.889Z,26.69
2018-05-25T18:28:17.361Z,26.53
2018-05-25T18:30:44.875Z,26.39
2018-05-25T18:33:12.343Z,26.26
2018-05-25T18:35:39.834Z,26.11
2018-05-25T18:38:07.290Z,25.95
2018-05-25T18:40:34.770Z,25.76
2018-05-25T18:43:02.230Z,25.66
2018-05-25T18:45:29.782Z,25.53
2018-05-25T18:47:57.260Z,25.36
2018-05-25T18:50:24.803Z,25.23
2018-05-25T18:52:52.286Z,25.06
2018-05-25T18:55:19.769Z,24.91
2018-05-25T18:57:47.238Z,24.81
2018-05-25T19:00:14.731Z,24.72
2018-05-25T19:02:42.291Z,24.60
2018-05-25T19:05:09.850Z,24.42
2018-05-25T19:07:37.351Z,24.27
2018-05-25T19:10:04.863Z,24.19
2018-05-25T19:12:32.322Z,24.08
2018-05-25T19:14:59.802Z,23.94
2018-05-25T19:17:27.301Z,23.82
2018-05-25T19:19:54.898Z,23.69
2018-05-25T19:22:22.367Z,23.61
2018-05-25T19:24:49.835Z,23.53
2018-05-25T19:27:17.324Z,23.45
2018-05-25T19:29:44.781Z,23.35
2018-05-25T19:32:12.275Z,23.27
2018-05-25T19:34:39.742Z,23.24
2018-05-25T19:37:07.241Z,23.33
2018-05-25T19:39:34.698Z,23.23
2018-05-25T19:42:02.182Z,23.21
2018-05-25T19:44:29.655Z,23.20
2018-05-25T19:46:57.146Z,23.10
2018-05-25T19:49:24.606Z,23.05
2018-05-25T19:51:52.163Z,22.89
2018-05-25T19:54:19.694Z,22.74
2018-05-25T19:56:47.219Z,22.62
2018-05-25T19:59:14.709Z,22.52
2018-05-25T20:01:42.236Z,22.42
2018-05-25T20:04:09.707Z,22.30
2018-05-25T20:06:37.197Z,22.20
2018-05-25T20:09:05.604Z,22.11
2018-05-25T20:11:33.102Z,22.10
2018-05-25T20:14:00.597Z,22.12
2018-05-25T20:16:28.103Z,22.05
2018-05-25T20:18:55.563Z,22.01
2018-05-25T20:21:23.147Z,21.85
2018-05-25T20:23:50.615Z,21.81
2018-05-25T20:26:18.111Z,21.77
2018-05-25T20:28:45.595Z,21.69
2018-05-25T20:31:13.084Z,21.60
2018-05-25T20:33:40.622Z,21.52
2018-05-25T20:36:08.085Z,21.48
2018-05-25T20:38:35.581Z,21.43
2018-05-25T20:41:03.054Z,21.38
2018-05-25T20:43:30.641Z,21.33
2018-05-25T20:45:58.214Z,21.31
2018-05-25T20:48:25.723Z,21.31
2018-05-25T20:50:53.189Z,21.35
2018-05-25T20:53:20.779Z,21.57
2018-05-25T20:55:48.306Z,21.78
2018-05-25T20:58:15.789Z,21.74
2018-05-25T21:00:43.264Z,21.67
2018-05-25T21:03:10.782Z,21.62
2018-05-25T21:05:38.250Z,21.52
2018-05-25T21:08:05.734Z,21.41
2018-05-25T21:10:33.221Z,21.30
2018-05-25T21:13:00.722Z,21.23
2018-05-25T21:15:28.208Z,21.37
2018-05-25T21:17:55.724Z,21.41
2018-05-25T21:20:23.269Z,21.57
2018-05-25T21:22:50.867Z,21.58
2018-05-25T21:25:18.347Z,21.45
2018-05-25T21:27:45.839Z,21.34
2018-05-25T21:30:13.305Z,21.25
2018-05-25T21:32:40.786Z,21.14
2018-05-25T21:35:08.272Z,21.05
2018-05-25T21:37:35.754Z,20.98
2018-05-25T21:40:03.227Z,20.94
2018-05-25T21:42:30.709Z,20.88
2018-05-25T21:44:58.202Z,20.84
2018-05-25T21:47:25.711Z,20.82
2018-05-25T21:49:53.335Z,20.85
2018-05-25T21:52:20.795Z,20.89
2018-05-25T21:54:48.299Z,20.90
2018-05-25T21:57:15.814Z,20.84
2018-05-25T21:59:43.338Z,20.76
2018-05-25T22:02:10.803Z,20.71
2018-05-25T22:04:38.371Z,20.61
2018-05-25T22:07:05.834Z,20.57
2018-05-25T22:09:33.356Z,20.49
2018-05-25T22:12:00.814Z,20.43
2018-05-25T22:14:28.305Z,20.37
2018-05-25T22:16:55.975Z,20.31
2018-05-25T22:19:23.434Z,20.29
2018-05-25T22:21:50.909Z,20.27
2018-05-25T22:24:18.431Z,20.23
2018-05-25T22:26:45.894Z,20.19
2018-05-25T22:29:13.443Z,20.12
2018-05-25T22:31:41.628Z,20.06
2018-05-25T22:34:09.554Z,20.02
2018-05-25T22:36:37.022Z,20.04
2018-05-25T22:39:04.502Z,19.98
2018-05-25T22:41:31.986Z,19.88
2018-05-25T22:44:11.325Z,19.77
2018-05-25T22:46:50.728Z,19.71
2018-05-25T22:49:30.010Z,19.68
2018-05-25T22:52:09.260Z,19.61
2018-05-25T22:54:42.714Z,19.55
2018-05-25T22:57:11.101Z,19.47
2018-05-25T22:59:38.637Z,19.40
2018-05-25T23:02:06.163Z,19.30
2018-05-25T23:04:33.720Z,19.24
2018-05-25T23:07:01.186Z,19.19
2018-05-25T23:09:28.670Z,19.13
2018-05-25T23:11:56.140Z,19.06
2018-05-25T23:14:23.643Z,19.03
2018-05-25T23:16:51.111Z,19.00
2018-05-25T23:19:18.594Z,18.95
2018-05-25T23:21:46.056Z,18.88
2018-05-25T23:24:13.533Z,18.80
2018-05-25T23:26:41.003Z,18.74
2018-05-25T23:29:08.463Z,18.72
2018-05-25T23:31:35.994Z,18.69
2018-05-25T23:34:03.451Z,18.64
2018-05-25T23:36:34.903Z,18.59
2018-05-25T23:39:02.374Z,18.54
2018-05-25T23:41:29.860Z,18.53
2018-05-25T23:43:57.330Z,18.45
2018-05-25T23:46:24.826Z,18.44
2018-05-25T23:48:52.294Z,18.44
2018-05-25T23:51:19.795Z,18.39
2018-05-25T23:53:47.262Z,18.34
2018-05-25T23:56:14.762Z,18.29
2018-05-25T23:58:42.270Z,18.26
